sensor_id;sensor_type;location;lat;lon;timestamp;P1;durP1;ratioP1;P2;durP2;ratioP2
6537;SDS011;3302;52.508;13.454;2022-11-15T00:00:51;30.03;;;22.33;;
6537;SDS011;3302;52.508;13.454;2022-11-15T00:03:18;29.37;;;23.13;;
6537;SDS011;3302;52.508;13.454;2022-11-15T00:05:45;28.63;;;23.20;;
6537;SDS011;3302;52.508;13.454;2022-11-15T00:08:11;31.53;;;24.33;;
6537;SDS011;3302;52.508;13.454;2022-11-15T00:10:37;32.33;;;23.63;;
6537;SDS011;3302;52.508;13.454;2022-11-15T00:13:08;29.67;;;23.07;;
6537;SDS011;3302;52.508;13.454;2022-11-15T00:15:37;29.97;;;22.40;;
6537;SDS011;3302;52.508;13.454;2022-11-15T00:18:04;31.20;;;22.33;;
6537;SDS011;3302;52.508;13.454;2022-11-15T00:20:31;28.90;;;22.13;;
6537;SDS011;3302;52.508;13.454;2022-11-15T00:22:59;27.97;;;21.33;;
6537;SDS011;3302;52.508;13.454;2022-11-15T00:25:25;28.97;;;22.13;;
6537;SDS011;3302;52.508;13.454;2022-11-15T00:27:54;32.40;;;23.00;;
6537;SDS011;3302;52.508;13.454;2022-11-15T00:30:22;29.77;;;22.90;;
6537;SDS011;3302;52.508;13.454;2022-11-15T00:32:48;29.47;;;23.13;;
6537;SDS011;3302;52.508;13.454;2022-11-15T00:35:13;29.87;;;23.37;;
6537;SDS011;3302;52.508;13.454;2022-11-15T00:37:39;30.73;;;23.67;;
6537;SDS011;3302;52.508;13.454;2022-11-15T00:40:05;29.53;;;23.30;;
6537;SDS011;3302;52.508;13.454;2022-11-15T00:42:32;28.73;;;22.40;;
6537;SDS011;3302;52.508;13.454;2022-11-15T00:44:58;32.60;;;24.23;;
6537;SDS011;3302;52.508;13.454;2022-11-15T00:47:23;29.70;;;22.93;;
6537;SDS011;3302;52.508;13.454;2022-11-15T00:49:49;29.43;;;23.50;;
6537;SDS011;3302;52.508;13.454;2022-11-15T00:52:15;33.83;;;23.77;;
6537;SDS011;3302;52.508;13.454;2022-11-15T00:54:41;30.40;;;24.30;;
6537;SDS011;3302;52.508;13.454;2022-11-15T00:57:06;30.60;;;23.53;;
6537;SDS011;3302;52.508;13.454;2022-11-15T00:59:32;31.90;;;24.83;;
6537;SDS011;3302;52.508;13.454;2022-11-15T01:01:58;31.07;;;23.80;;
6537;SDS011;3302;52.508;13.454;2022-11-15T01:04:24;31.93;;;23.37;;
6537;SDS011;3302;52.508;13.454;2022-11-15T01:06:50;32.10;;;24.17;;
6537;SDS011;3302;52.508;13.454;2022-11-15T01:09:16;32.33;;;24.10;;
6537;SDS011;3302;52.508;13.454;2022-11-15T01:11:41;35.97;;;24.90;;
6537;SDS011;3302;52.508;13.454;2022-11-15T01:14:07;31.63;;;23.57;;
6537;SDS011;3302;52.508;13.454;2022-11-15T01:16:33;31.87;;;24.23;;
6537;SDS011;3302;52.508;13.454;2022-11-15T01:18:59;29.33;;;24.57;;
6537;SDS011;3302;52.508;13.454;2022-11-15T01:21:25;33.37;;;24.43;;
6537;SDS011;3302;52.508;13.454;2022-11-15T01:23:54;29.53;;;24.27;;
6537;SDS011;3302;52.508;13.454;2022-11-15T01:26:20;31.10;;;24.10;;
6537;SDS011;3302;52.508;13.454;2022-11-15T01:28:46;30.67;;;24.13;;
6537;SDS011;3302;52.508;13.454;2022-11-15T01:31:14;33.17;;;25.00;;
6537;SDS011;3302;52.508;13.454;2022-11-15T01:33:41;30.83;;;23.70;;
6537;SDS011;3302;52.508;13.454;2022-11-15T01:36:08;29.13;;;23.90;;
6537;SDS011;3302;52.508;13.454;2022-11-15T01:38:37;32.20;;;24.73;;
6537;SDS011;3302;52.508;13.454;2022-11-15T01:41:06;32.20;;;23.97;;
6537;SDS011;3302;52.508;13.454;2022-11-15T01:43:39;32.47;;;24.03;;
6537;SDS011;3302;52.508;13.454;2022-11-15T01:48:33;29.63;;;22.77;;
6537;SDS011;3302;52.508;13.454;2022-11-15T01:50:59;29.27;;;23.57;;
6537;SDS011;3302;52.508;13.454;2022-11-15T01:53:29;27.50;;;22.13;;
6537;SDS011;3302;52.508;13.454;2022-11-15T01:55:57;33.07;;;24.73;;
6537;SDS011;3302;52.508;13.454;2022-11-15T01:58:23;28.80;;;22.93;;
6537;SDS011;3302;52.508;13.454;2022-11-15T02:00:49;29.47;;;23.10;;
6537;SDS011;3302;52.508;13.454;2022-11-15T02:03:16;28.17;;;22.77;;
6537;SDS011;3302;52.508;13.454;2022-11-15T02:05:42;28.93;;;23.53;;
6537;SDS011;3302;52.508;13.454;2022-11-15T02:08:09;31.30;;;23.87;;
6537;SDS011;3302;52.508;13.454;2022-11-15T02:10:47;30.73;;;24.13;;
6537;SDS011;3302;52.508;13.454;2022-11-15T02:13:14;28.40;;;22.80;;
6537;SDS011;3302;52.508;13.454;2022-11-15T02:16:25;27.87;;;22.80;;
6537;SDS011;3302;52.508;13.454;2022-11-15T02:18:37;31.73;;;24.33;;
6537;SDS011;3302;52.508;13.454;2022-11-15T02:21:47;32.40;;;24.27;;
6537;SDS011;3302;52.508;13.454;2022-11-15T02:30:10;31.80;;;25.07;;
6537;SDS011;3302;52.508;13.454;2022-11-15T02:32:57;31.50;;;24.50;;
6537;SDS011;3302;52.508;13.454;2022-11-15T02:40:47;29.10;;;23.80;;
6537;SDS011;3302;52.508;13.454;2022-11-15T02:46:27;31.83;;;24.10;;
6537;SDS011;3302;52.508;13.454;2022-11-15T02:49:34;29.57;;;23.40;;
6537;SDS011;3302;52.508;13.454;2022-11-15T02:52:00;32.07;;;24.47;;
6537;SDS011;3302;52.508;13.454;2022-11-15T02:54:29;30.33;;;23.13;;
6537;SDS011;3302;52.508;13.454;2022-11-15T02:57:01;30.77;;;24.17;;
6537;SDS011;3302;52.508;13.454;2022-11-15T03:04:53;33.00;;;24.87;;
6537;SDS011;3302;52.508;13.454;2022-11-15T03:10:31;32.70;;;24.83;;
6537;SDS011;3302;52.508;13.454;2022-11-15T03:15:38;32.70;;;25.23;;
6537;SDS011;3302;52.508;13.454;2022-11-15T03:18:28;31.50;;;24.77;;
6537;SDS011;3302;52.508;13.454;2022-11-15T03:21:03;31.23;;;23.53;;
6537;SDS011;3302;52.508;13.454;2022-11-15T03:23:32;31.80;;;23.77;;
6537;SDS011;3302;52.508;13.454;2022-11-15T03:26:00;30.00;;;24.63;;
6537;SDS011;3302;52.508;13.454;2022-11-15T03:28:32;30.60;;;24.17;;
6537;SDS011;3302;52.508;13.454;2022-11-15T03:31:02;29.00;;;22.60;;
6537;SDS011;3302;52.508;13.454;2022-11-15T03:33:53;32.37;;;23.83;;
6537;SDS011;3302;52.508;13.454;2022-11-15T03:36:22;31.27;;;25.00;;
6537;SDS011;3302;52.508;13.454;2022-11-15T03:38:51;30.97;;;23.70;;
6537;SDS011;3302;52.508;13.454;2022-11-15T03:41:27;30.30;;;24.87;;
6537;SDS011;3302;52.508;13.454;2022-11-15T03:44:01;29.50;;;23.23;;
6537;SDS011;3302;52.508;13.454;2022-11-15T03:46:37;32.10;;;25.60;;
6537;SDS011;3302;52.508;13.454;2022-11-15T03:49:11;30.50;;;24.03;;
6537;SDS011;3302;52.508;13.454;2022-11-15T03:51:42;30.27;;;23.70;;
6537;SDS011;3302;52.508;13.454;2022-11-15T03:54:08;31.00;;;24.23;;
6537;SDS011;3302;52.508;13.454;2022-11-15T03:56:33;32.70;;;24.67;;
6537;SDS011;3302;52.508;13.454;2022-11-15T03:58:59;30.97;;;23.63;;
6537;SDS011;3302;52.508;13.454;2022-11-15T04:01:25;27.40;;;23.07;;
6537;SDS011;3302;52.508;13.454;2022-11-15T04:03:51;28.90;;;23.47;;
6537;SDS011;3302;52.508;13.454;2022-11-15T04:06:17;30.70;;;24.67;;
6537;SDS011;3302;52.508;13.454;2022-11-15T04:08:42;30.90;;;23.53;;
6537;SDS011;3302;52.508;13.454;2022-11-15T04:11:08;29.00;;;23.20;;
6537;SDS011;3302;52.508;13.454;2022-11-15T04:13:34;31.30;;;24.27;;
6537;SDS011;3302;52.508;13.454;2022-11-15T04:15:59;31.40;;;24.67;;
6537;SDS011;3302;52.508;13.454;2022-11-15T04:18:25;33.33;;;24.97;;
6537;SDS011;3302;52.508;13.454;2022-11-15T04:20:51;28.67;;;23.90;;
6537;SDS011;3302;52.508;13.454;2022-11-15T04:23:35;31.70;;;24.50;;
6537;SDS011;3302;52.508;13.454;2022-11-15T04:26:30;31.27;;;24.13;;
6537;SDS011;3302;52.508;13.454;2022-11-15T04:28:56;28.67;;;24.20;;
6537;SDS011;3302;52.508;13.454;2022-11-15T04:31:41;27.53;;;22.80;;
6537;SDS011;3302;52.508;13.454;2022-11-15T04:34:07;32.10;;;24.60;;
6537;SDS011;3302;52.508;13.454;2022-11-15T04:36:32;31.43;;;24.27;;
6537;SDS011;3302;52.508;13.454;2022-11-15T04:39:17;30.17;;;24.07;;
6537;SDS011;3302;52.508;13.454;2022-11-15T04:41:43;31.33;;;24.47;;
6537;SDS011;3302;52.508;13.454;2022-11-15T04:44:09;31.07;;;23.67;;
6537;SDS011;3302;52.508;13.454;2022-11-15T04:46:34;29.80;;;23.50;;
6537;SDS011;3302;52.508;13.454;2022-11-15T04:49:00;28.87;;;23.70;;
6537;SDS011;3302;52.508;13.454;2022-11-15T04:51:26;30.57;;;23.93;;
6537;SDS011;3302;52.508;13.454;2022-11-15T04:53:52;30.47;;;24.70;;
6537;SDS011;3302;52.508;13.454;2022-11-15T04:56:18;30.77;;;23.43;;
6537;SDS011;3302;52.508;13.454;2022-11-15T04:58:44;30.50;;;24.30;;
6537;SDS011;3302;52.508;13.454;2022-11-15T05:01:10;30.40;;;24.80;;
6537;SDS011;3302;52.508;13.454;2022-11-15T05:03:39;31.03;;;23.40;;
6537;SDS011;3302;52.508;13.454;2022-11-15T05:06:27;30.63;;;23.60;;
6537;SDS011;3302;52.508;13.454;2022-11-15T05:08:54;30.57;;;24.27;;
6537;SDS011;3302;52.508;13.454;2022-11-15T05:11:20;30.03;;;24.20;;
6537;SDS011;3302;52.508;13.454;2022-11-15T05:13:46;31.80;;;24.80;;
6537;SDS011;3302;52.508;13.454;2022-11-15T05:16:12;29.83;;;23.17;;
6537;SDS011;3302;52.508;13.454;2022-11-15T05:18:38;31.77;;;24.20;;
6537;SDS011;3302;52.508;13.454;2022-11-15T05:21:10;33.53;;;25.33;;
6537;SDS011;3302;52.508;13.454;2022-11-15T05:23:38;30.63;;;24.00;;
6537;SDS011;3302;52.508;13.454;2022-11-15T05:26:05;30.27;;;24.30;;
6537;SDS011;3302;52.508;13.454;2022-11-15T05:28:32;29.47;;;24.43;;
6537;SDS011;3302;52.508;13.454;2022-11-15T05:31:09;31.60;;;24.23;;
6537;SDS011;3302;52.508;13.454;2022-11-15T05:33:36;32.03;;;23.93;;
6537;SDS011;3302;52.508;13.454;2022-11-15T05:38:44;28.77;;;23.43;;
6537;SDS011;3302;52.508;13.454;2022-11-15T05:41:12;27.63;;;22.80;;
6537;SDS011;3302;52.508;13.454;2022-11-15T05:43:39;32.37;;;24.17;;
6537;SDS011;3302;52.508;13.454;2022-11-15T05:46:06;29.23;;;23.87;;
6537;SDS011;3302;52.508;13.454;2022-11-15T05:48:33;29.07;;;22.73;;
6537;SDS011;3302;52.508;13.454;2022-11-15T05:51:00;33.73;;;25.27;;
6537;SDS011;3302;52.508;13.454;2022-11-15T05:53:27;32.43;;;24.40;;
6537;SDS011;3302;52.508;13.454;2022-11-15T05:55:53;31.53;;;23.13;;
6537;SDS011;3302;52.508;13.454;2022-11-15T05:58:19;30.00;;;23.40;;
6537;SDS011;3302;52.508;13.454;2022-11-15T06:00:45;30.40;;;24.43;;
6537;SDS011;3302;52.508;13.454;2022-11-15T06:03:11;31.03;;;23.63;;
6537;SDS011;3302;52.508;13.454;2022-11-15T06:05:39;28.00;;;22.63;;
6537;SDS011;3302;52.508;13.454;2022-11-15T06:08:05;29.73;;;23.50;;
6537;SDS011;3302;52.508;13.454;2022-11-15T06:10:32;29.07;;;23.53;;
6537;SDS011;3302;52.508;13.454;2022-11-15T06:15:24;30.20;;;23.47;;
6537;SDS011;3302;52.508;13.454;2022-11-15T06:17:50;30.00;;;24.17;;
6537;SDS011;3302;52.508;13.454;2022-11-15T06:20:16;32.00;;;24.43;;
6537;SDS011;3302;52.508;13.454;2022-11-15T06:22:43;30.60;;;23.13;;
6537;SDS011;3302;52.508;13.454;2022-11-15T06:25:09;30.17;;;23.93;;
6537;SDS011;3302;52.508;13.454;2022-11-15T06:27:39;31.50;;;23.73;;
6537;SDS011;3302;52.508;13.454;2022-11-15T06:30:05;30.93;;;24.27;;
6537;SDS011;3302;52.508;13.454;2022-11-15T06:32:31;32.23;;;24.83;;
6537;SDS011;3302;52.508;13.454;2022-11-15T06:34:57;30.77;;;24.40;;
6537;SDS011;3302;52.508;13.454;2022-11-15T06:37:23;32.10;;;24.93;;
6537;SDS011;3302;52.508;13.454;2022-11-15T06:39:49;30.90;;;24.43;;
6537;SDS011;3302;52.508;13.454;2022-11-15T06:42:14;30.80;;;24.07;;
6537;SDS011;3302;52.508;13.454;2022-11-15T06:44:40;30.87;;;24.07;;
6537;SDS011;3302;52.508;13.454;2022-11-15T06:47:06;30.93;;;25.40;;
6537;SDS011;3302;52.508;13.454;2022-11-15T06:49:32;31.40;;;24.63;;
6537;SDS011;3302;52.508;13.454;2022-11-15T06:51:57;32.73;;;25.07;;
6537;SDS011;3302;52.508;13.454;2022-11-15T06:54:23;32.23;;;24.53;;
6537;SDS011;3302;52.508;13.454;2022-11-15T06:56:49;33.57;;;25.37;;
6537;SDS011;3302;52.508;13.454;2022-11-15T06:59:15;31.77;;;24.20;;
6537;SDS011;3302;52.508;13.454;2022-11-15T07:01:50;31.77;;;25.30;;
6537;SDS011;3302;52.508;13.454;2022-11-15T07:04:16;32.77;;;26.07;;
6537;SDS011;3302;52.508;13.454;2022-11-15T07:06:41;30.93;;;24.27;;
6537;SDS011;3302;52.508;13.454;2022-11-15T07:09:07;33.20;;;24.13;;
6537;SDS011;3302;52.508;13.454;2022-11-15T07:11:33;34.40;;;25.70;;
6537;SDS011;3302;52.508;13.454;2022-11-15T07:13:59;31.50;;;24.63;;
6537;SDS011;3302;52.508;13.454;2022-11-15T07:16:26;31.23;;;25.00;;
6537;SDS011;3302;52.508;13.454;2022-11-15T07:18:51;32.03;;;23.67;;
6537;SDS011;3302;52.508;13.454;2022-11-15T07:21:17;30.60;;;24.03;;
6537;SDS011;3302;52.508;13.454;2022-11-15T07:23:43;31.53;;;24.60;;
6537;SDS011;3302;52.508;13.454;2022-11-15T07:26:09;30.90;;;24.30;;
6537;SDS011;3302;52.508;13.454;2022-11-15T07:28:35;32.93;;;24.70;;
6537;SDS011;3302;52.508;13.454;2022-11-15T07:31:04;32.53;;;24.60;;
6537;SDS011;3302;52.508;13.454;2022-11-15T07:33:31;31.33;;;24.63;;
6537;SDS011;3302;52.508;13.454;2022-11-15T07:36:00;32.30;;;24.80;;
6537;SDS011;3302;52.508;13.454;2022-11-15T07:38:28;32.77;;;24.43;;
6537;SDS011;3302;52.508;13.454;2022-11-15T07:40:58;34.77;;;24.13;;
6537;SDS011;3302;52.508;13.454;2022-11-15T07:43:25;32.17;;;25.60;;
6537;SDS011;3302;52.508;13.454;2022-11-15T07:45:55;33.13;;;25.33;;
6537;SDS011;3302;52.508;13.454;2022-11-15T07:48:21;31.90;;;24.63;;
6537;SDS011;3302;52.508;13.454;2022-11-15T07:50:47;31.10;;;24.30;;
6537;SDS011;3302;52.508;13.454;2022-11-15T07:53:13;32.83;;;25.93;;
6537;SDS011;3302;52.508;13.454;2022-11-15T07:55:39;33.63;;;25.37;;
6537;SDS011;3302;52.508;13.454;2022-11-15T07:58:07;31.03;;;24.67;;
6537;SDS011;3302;52.508;13.454;2022-11-15T08:00:34;29.93;;;23.77;;
6537;SDS011;3302;52.508;13.454;2022-11-15T08:05:34;34.90;;;24.87;;
6537;SDS011;3302;52.508;13.454;2022-11-15T08:08:00;29.73;;;24.17;;
6537;SDS011;3302;52.508;13.454;2022-11-15T08:10:27;30.43;;;23.33;;
6537;SDS011;3302;52.508;13.454;2022-11-15T08:12:57;30.57;;;25.10;;
6537;SDS011;3302;52.508;13.454;2022-11-15T08:15:24;31.70;;;24.83;;
6537;SDS011;3302;52.508;13.454;2022-11-15T08:17:54;30.50;;;24.47;;
6537;SDS011;3302;52.508;13.454;2022-11-15T08:20:21;30.77;;;24.00;;
6537;SDS011;3302;52.508;13.454;2022-11-15T08:22:47;32.97;;;24.97;;
6537;SDS011;3302;52.508;13.454;2022-11-15T08:25:12;33.10;;;24.70;;
6537;SDS011;3302;52.508;13.454;2022-11-15T08:27:38;28.93;;;22.77;;
6537;SDS011;3302;52.508;13.454;2022-11-15T08:30:04;31.87;;;22.67;;
6537;SDS011;3302;52.508;13.454;2022-11-15T08:32:30;29.90;;;23.10;;
6537;SDS011;3302;52.508;13.454;2022-11-15T08:34:56;30.70;;;23.67;;
6537;SDS011;3302;52.508;13.454;2022-11-15T08:37:22;31.07;;;24.23;;
6537;SDS011;3302;52.508;13.454;2022-11-15T08:39:48;29.87;;;23.67;;
6537;SDS011;3302;52.508;13.454;2022-11-15T08:42:14;33.03;;;23.17;;
6537;SDS011;3302;52.508;13.454;2022-11-15T08:44:41;31.37;;;23.10;;
6537;SDS011;3302;52.508;13.454;2022-11-15T08:47:07;29.03;;;23.03;;
6537;SDS011;3302;52.508;13.454;2022-11-15T08:49:35;29.10;;;24.07;;
6537;SDS011;3302;52.508;13.454;2022-11-15T08:52:01;30.67;;;23.43;;
6537;SDS011;3302;52.508;13.454;2022-11-15T08:54:27;32.43;;;23.63;;
6537;SDS011;3302;52.508;13.454;2022-11-15T08:56:53;27.90;;;22.07;;
6537;SDS011;3302;52.508;13.454;2022-11-15T08:59:19;33.37;;;22.67;;
6537;SDS011;3302;52.508;13.454;2022-11-15T09:01:44;31.37;;;22.53;;
6537;SDS011;3302;52.508;13.454;2022-11-15T09:04:10;29.13;;;21.03;;
6537;SDS011;3302;52.508;13.454;2022-11-15T09:06:36;27.40;;;22.50;;
6537;SDS011;3302;52.508;13.454;2022-11-15T09:09:02;26.90;;;21.50;;
6537;SDS011;3302;52.508;13.454;2022-11-15T09:11:28;28.57;;;20.90;;
6537;SDS011;3302;52.508;13.454;2022-11-15T09:13:54;26.77;;;21.10;;
6537;SDS011;3302;52.508;13.454;2022-11-15T09:16:20;27.30;;;21.20;;
6537;SDS011;3302;52.508;13.454;2022-11-15T09:18:46;28.17;;;21.60;;
6537;SDS011;3302;52.508;13.454;2022-11-15T09:21:12;24.40;;;19.67;;
6537;SDS011;3302;52.508;13.454;2022-11-15T09:23:37;26.73;;;20.97;;
6537;SDS011;3302;52.508;13.454;2022-11-15T09:26:04;24.50;;;18.37;;
6537;SDS011;3302;52.508;13.454;2022-11-15T09:28:30;25.03;;;19.53;;
6537;SDS011;3302;52.508;13.454;2022-11-15T09:30:58;24.33;;;18.40;;
6537;SDS011;3302;52.508;13.454;2022-11-15T09:33:29;23.27;;;18.80;;
6537;SDS011;3302;52.508;13.454;2022-11-15T09:35:59;26.37;;;19.27;;
6537;SDS011;3302;52.508;13.454;2022-11-15T09:38:30;23.37;;;19.23;;
6537;SDS011;3302;52.508;13.454;2022-11-15T09:41:21;22.13;;;17.10;;
6537;SDS011;3302;52.508;13.454;2022-11-15T09:44:02;25.27;;;18.13;;
6537;SDS011;3302;52.508;13.454;2022-11-15T09:46:55;21.90;;;17.63;;
6537;SDS011;3302;52.508;13.454;2022-11-15T09:49:34;25.67;;;19.07;;
6537;SDS011;3302;52.508;13.454;2022-11-15T09:52:00;22.33;;;17.47;;
6537;SDS011;3302;52.508;13.454;2022-11-15T09:54:28;25.40;;;18.47;;
6537;SDS011;3302;52.508;13.454;2022-11-15T09:57:03;24.33;;;17.27;;
6537;SDS011;3302;52.508;13.454;2022-11-15T10:05:07;19.93;;;15.77;;
6537;SDS011;3302;52.508;13.454;2022-11-15T10:12:56;18.17;;;14.33;;
6537;SDS011;3302;52.508;13.454;2022-11-15T10:15:23;18.33;;;13.87;;
6537;SDS011;3302;52.508;13.454;2022-11-15T10:20:28;18.07;;;14.83;;
6537;SDS011;3302;52.508;13.454;2022-11-15T10:23:04;17.77;;;14.37;;
6537;SDS011;3302;52.508;13.454;2022-11-15T10:25:32;17.90;;;14.67;;
6537;SDS011;3302;52.508;13.454;2022-11-15T10:28:00;20.33;;;14.50;;
6537;SDS011;3302;52.508;13.454;2022-11-15T10:30:33;20.10;;;14.67;;
6537;SDS011;3302;52.508;13.454;2022-11-15T10:41:18;17.23;;;13.10;;
6537;SDS011;3302;52.508;13.454;2022-11-15T10:46:35;17.20;;;13.03;;
6537;SDS011;3302;52.508;13.454;2022-11-15T10:49:52;16.53;;;13.50;;
6537;SDS011;3302;52.508;13.454;2022-11-15T10:51:58;18.67;;;13.40;;
6537;SDS011;3302;52.508;13.454;2022-11-15T10:57:00;16.97;;;12.17;;
6537;SDS011;3302;52.508;13.454;2022-11-15T10:59:38;16.47;;;13.03;;
6537;SDS011;3302;52.508;13.454;2022-11-15T11:05:04;17.20;;;12.73;;
6537;SDS011;3302;52.508;13.454;2022-11-15T11:07:48;15.20;;;12.03;;
6537;SDS011;3302;52.508;13.454;2022-11-15T11:10:28;16.20;;;12.47;;
6537;SDS011;3302;52.508;13.454;2022-11-15T11:12:55;14.30;;;11.27;;
6537;SDS011;3302;52.508;13.454;2022-11-15T11:15:22;15.03;;;12.07;;
6537;SDS011;3302;52.508;13.454;2022-11-15T11:20:48;16.50;;;12.37;;
6537;SDS011;3302;52.508;13.454;2022-11-15T11:47:59;15.97;;;12.00;;
6537;SDS011;3302;52.508;13.454;2022-11-15T11:50:46;14.33;;;12.00;;
6537;SDS011;3302;52.508;13.454;2022-11-15T11:53:26;14.47;;;11.50;;
6537;SDS011;3302;52.508;13.454;2022-11-15T11:55:57;14.47;;;11.60;;
6537;SDS011;3302;52.508;13.454;2022-11-15T12:06:33;15.77;;;12.77;;
6537;SDS011;3302;52.508;13.454;2022-11-15T12:14:31;16.53;;;12.60;;
6537;SDS011;3302;52.508;13.454;2022-11-15T12:16:58;15.50;;;11.83;;
6537;SDS011;3302;52.508;13.454;2022-11-15T12:19:24;15.30;;;12.33;;
6537;SDS011;3302;52.508;13.454;2022-11-15T12:22:02;15.97;;;12.37;;
6537;SDS011;3302;52.508;13.454;2022-11-15T12:24:32;16.53;;;12.60;;
6537;SDS011;3302;52.508;13.454;2022-11-15T12:27:16;13.60;;;11.73;;
6537;SDS011;3302;52.508;13.454;2022-11-15T12:30:10;15.23;;;11.83;;
6537;SDS011;3302;52.508;13.454;2022-11-15T12:32:38;15.10;;;11.60;;
6537;SDS011;3302;52.508;13.454;2022-11-15T12:37:55;22.53;;;12.47;;
6537;SDS011;3302;52.508;13.454;2022-11-15T12:42:57;15.37;;;12.10;;
6537;SDS011;3302;52.508;13.454;2022-11-15T12:48:44;13.90;;;12.10;;
6537;SDS011;3302;52.508;13.454;2022-11-15T12:51:00;14.67;;;12.23;;
6537;SDS011;3302;52.508;13.454;2022-11-15T13:12:01;18.50;;;13.73;;
6537;SDS011;3302;52.508;13.454;2022-11-15T13:22:39;15.27;;;12.77;;
6537;SDS011;3302;52.508;13.454;2022-11-15T13:28:03;14.53;;;11.40;;
6537;SDS011;3302;52.508;13.454;2022-11-15T13:30:35;13.73;;;11.03;;
6537;SDS011;3302;52.508;13.454;2022-11-15T13:33:09;12.43;;;10.10;;
6537;SDS011;3302;52.508;13.454;2022-11-15T13:35:41;13.43;;;10.77;;
6537;SDS011;3302;52.508;13.454;2022-11-15T13:38:12;15.93;;;10.17;;
6537;SDS011;3302;52.508;13.454;2022-11-15T13:41:20;12.03;;;9.37;;
6537;SDS011;3302;52.508;13.454;2022-11-15T13:43:49;12.47;;;10.50;;
6537;SDS011;3302;52.508;13.454;2022-11-15T13:46:18;11.50;;;9.50;;
6537;SDS011;3302;52.508;13.454;2022-11-15T13:48:46;14.73;;;10.10;;
6537;SDS011;3302;52.508;13.454;2022-11-15T13:51:21;12.50;;;10.30;;
6537;SDS011;3302;52.508;13.454;2022-11-15T13:53:58;13.03;;;11.60;;
6537;SDS011;3302;52.508;13.454;2022-11-15T13:56:28;15.60;;;13.13;;
6537;SDS011;3302;52.508;13.454;2022-11-15T13:58:56;14.90;;;11.80;;
6537;SDS011;3302;52.508;13.454;2022-11-15T14:01:22;12.97;;;11.20;;
6537;SDS011;3302;52.508;13.454;2022-11-15T14:03:56;11.77;;;10.57;;
6537;SDS011;3302;52.508;13.454;2022-11-15T14:06:25;12.43;;;11.13;;
6537;SDS011;3302;52.508;13.454;2022-11-15T14:11:27;13.43;;;10.60;;
6537;SDS011;3302;52.508;13.454;2022-11-15T14:14:11;14.97;;;11.07;;
6537;SDS011;3302;52.508;13.454;2022-11-15T14:16:41;13.43;;;11.33;;
6537;SDS011;3302;52.508;13.454;2022-11-15T14:19:13;14.73;;;11.37;;
6537;SDS011;3302;52.508;13.454;2022-11-15T14:22:09;11.63;;;10.27;;
6537;SDS011;3302;52.508;13.454;2022-11-15T14:25:07;14.93;;;11.57;;
6537;SDS011;3302;52.508;13.454;2022-11-15T14:27:40;12.57;;;10.23;;
6537;SDS011;3302;52.508;13.454;2022-11-15T14:30:15;11.77;;;10.50;;
6537;SDS011;3302;52.508;13.454;2022-11-15T14:32:43;13.13;;;10.03;;
6537;SDS011;3302;52.508;13.454;2022-11-15T14:35:15;12.13;;;10.37;;
6537;SDS011;3302;52.508;13.454;2022-11-15T14:37:44;13.03;;;10.70;;
6537;SDS011;3302;52.508;13.454;2022-11-15T14:40:14;13.10;;;11.00;;
6537;SDS011;3302;52.508;13.454;2022-11-15T14:42:44;12.63;;;10.20;;
6537;SDS011;3302;52.508;13.454;2022-11-15T14:45:14;20.50;;;11.83;;
6537;SDS011;3302;52.508;13.454;2022-11-15T14:47:42;15.53;;;11.70;;
6537;SDS011;3302;52.508;13.454;2022-11-15T14:50:15;16.40;;;11.43;;
6537;SDS011;3302;52.508;13.454;2022-11-15T14:52:45;15.10;;;11.77;;
6537;SDS011;3302;52.508;13.454;2022-11-15T14:55:21;14.77;;;11.67;;
6537;SDS011;3302;52.508;13.454;2022-11-15T14:57:52;13.73;;;11.40;;
6537;SDS011;3302;52.508;13.454;2022-11-15T15:00:18;14.20;;;12.37;;
6537;SDS011;3302;52.508;13.454;2022-11-15T15:02:45;19.60;;;13.43;;
6537;SDS011;3302;52.508;13.454;2022-11-15T15:05:16;19.53;;;13.53;;
6537;SDS011;3302;52.508;13.454;2022-11-15T15:07:43;14.20;;;11.80;;
6537;SDS011;3302;52.508;13.454;2022-11-15T15:10:09;14.03;;;11.93;;
6537;SDS011;3302;52.508;13.454;2022-11-15T15:12:35;15.27;;;12.83;;
6537;SDS011;3302;52.508;13.454;2022-11-15T15:15:01;16.67;;;12.40;;
6537;SDS011;3302;52.508;13.454;2022-11-15T15:17:27;18.33;;;13.23;;
6537;SDS011;3302;52.508;13.454;2022-11-15T15:19:53;15.10;;;12.83;;
6537;SDS011;3302;52.508;13.454;2022-11-15T15:22:19;15.23;;;13.00;;
6537;SDS011;3302;52.508;13.454;2022-11-15T15:24:50;18.47;;;12.93;;
6537;SDS011;3302;52.508;13.454;2022-11-15T15:27:16;13.10;;;11.70;;
6537;SDS011;3302;52.508;13.454;2022-11-15T15:29:42;15.90;;;11.43;;
6537;SDS011;3302;52.508;13.454;2022-11-15T15:32:08;13.13;;;11.40;;
6537;SDS011;3302;52.508;13.454;2022-11-15T15:34:35;15.70;;;12.17;;
6537;SDS011;3302;52.508;13.454;2022-11-15T15:37:34;16.37;;;11.87;;
6537;SDS011;3302;52.508;13.454;2022-11-15T15:40:00;16.17;;;12.40;;
6537;SDS011;3302;52.508;13.454;2022-11-15T15:42:25;16.80;;;13.53;;
6537;SDS011;3302;52.508;13.454;2022-11-15T15:44:51;18.73;;;12.60;;
6537;SDS011;3302;52.508;13.454;2022-11-15T15:47:21;16.87;;;12.57;;
6537;SDS011;3302;52.508;13.454;2022-11-15T15:49:48;16.43;;;12.17;;
6537;SDS011;3302;52.508;13.454;2022-11-15T15:52:15;17.47;;;13.80;;
6537;SDS011;3302;52.508;13.454;2022-11-15T15:54:41;17.13;;;12.80;;
6537;SDS011;3302;52.508;13.454;2022-11-15T15:57:07;13.13;;;10.57;;
6537;SDS011;3302;52.508;13.454;2022-11-15T15:59:35;13.93;;;10.70;;
6537;SDS011;3302;52.508;13.454;2022-11-15T16:02:01;14.47;;;11.83;;
6537;SDS011;3302;52.508;13.454;2022-11-15T16:04:27;14.23;;;11.80;;
6537;SDS011;3302;52.508;13.454;2022-11-15T16:06:58;13.97;;;11.77;;
6537;SDS011;3302;52.508;13.454;2022-11-15T16:09:24;16.87;;;13.07;;
6537;SDS011;3302;52.508;13.454;2022-11-15T16:12:09;14.63;;;13.10;;
6537;SDS011;3302;52.508;13.454;2022-11-15T16:14:35;17.00;;;13.10;;
6537;SDS011;3302;52.508;13.454;2022-11-15T16:17:01;16.53;;;13.43;;
6537;SDS011;3302;52.508;13.454;2022-11-15T16:19:28;16.90;;;13.70;;
6537;SDS011;3302;52.508;13.454;2022-11-15T16:21:54;17.47;;;13.83;;
6537;SDS011;3302;52.508;13.454;2022-11-15T16:24:20;18.53;;;14.43;;
6537;SDS011;3302;52.508;13.454;2022-11-15T16:26:46;19.17;;;13.97;;
6537;SDS011;3302;52.508;13.454;2022-11-15T16:29:13;22.33;;;14.37;;
6537;SDS011;3302;52.508;13.454;2022-11-15T16:31:39;18.87;;;14.47;;
6537;SDS011;3302;52.508;13.454;2022-11-15T16:34:05;17.70;;;13.60;;
6537;SDS011;3302;52.508;13.454;2022-11-15T16:36:34;17.40;;;14.27;;
6537;SDS011;3302;52.508;13.454;2022-11-15T16:39:01;16.77;;;14.13;;
6537;SDS011;3302;52.508;13.454;2022-11-15T16:41:30;17.87;;;15.03;;
6537;SDS011;3302;52.508;13.454;2022-11-15T16:43:56;19.83;;;14.67;;
6537;SDS011;3302;52.508;13.454;2022-11-15T16:46:26;20.67;;;16.57;;
6537;SDS011;3302;52.508;13.454;2022-11-15T16:48:53;19.67;;;17.00;;
6537;SDS011;3302;52.508;13.454;2022-11-15T16:51:19;20.77;;;17.80;;
6537;SDS011;3302;52.508;13.454;2022-11-15T16:53:45;20.13;;;17.37;;
6537;SDS011;3302;52.508;13.454;2022-11-15T16:56:23;20.93;;;17.47;;
6537;SDS011;3302;52.508;13.454;2022-11-15T16:58:51;22.37;;;18.30;;
6537;SDS011;3302;52.508;13.454;2022-11-15T17:01:22;29.77;;;20.37;;
6537;SDS011;3302;52.508;13.454;2022-11-15T17:03:55;23.43;;;19.57;;
6537;SDS011;3302;52.508;13.454;2022-11-15T17:06:22;24.83;;;20.13;;
6537;SDS011;3302;52.508;13.454;2022-11-15T17:08:48;27.00;;;21.50;;
6537;SDS011;3302;52.508;13.454;2022-11-15T17:11:15;26.07;;;20.90;;
6537;SDS011;3302;52.508;13.454;2022-11-15T17:13:45;29.33;;;22.77;;
6537;SDS011;3302;52.508;13.454;2022-11-15T17:16:13;28.00;;;21.43;;